Reykjavik Airport

BIRK | RKV

Reykjavik , Capital Region , Iceland

Wednesday, December 11th, 2019 | 16:37

Weather

BIRK 111600Z 34015KT 9999 R19///// FEW024 BKN036 M02/M06 Q0987 R01/790139

Charts

No Charts Available

Gates

89 Available

Runways

2 Available

Events

No events for this airport


New event